Sharpsburg, Maryland
Current Conditions -  °F | °C
As of 6:53 PM on Saturday 25 Oct 2014 (Local Time) from KMRB Reporting Station
Clear Clear  
Wind Chill: 68°   Ceiling: Unl
Heat Index: 68°   Visibility: 10mi
Dew Point: 41°   Wind: 7mph
Humidity: 37%   Direction: 230°SW
Pressure: 29.74"   Gusts: NA
Location:  39.46°N, 77.75°W
Report Text: KMRB 252253Z AUTO 23006KT 10SM CLR 20/05 A2974 RMK AO2 SLP070 T02000050 TSNO
Loading
Personal Weather Stations






























Interactive Weather Map
Tropical Storm Tracking
New forecast layout! Learn more

10-Day Weather Forecast

Advertisements
Track Severe Weather on mobile